Time;durP1;ratioP1;P1;durP2;ratioP2;P2;SDS_P1;SDS_P2;PMS_P1;PMS_P2;Temp;Humidity;BMP_temperature;BMP_pressure;BME280_temperature;BME280_humidity;BME280_pressure;Samples;Min_cycle;Max_cycle;Signal;HPM_P1;HPM_P2
2022/03/24 00:01:59;;;;;;;66.37;37.78;;;;;;;1.81;65.49;102695.48;1607196;88;21769;-77
2022/03/24 00:04:26;;;;;;;69.55;39.67;;;;;;;1.83;65.43;102690.03;1593389;88;21084;-77
2022/03/24 00:06:53;;;;;;;68.07;37.30;;;;;;;1.84;65.38;102693.14;1599227;88;21093;-76
2022/03/24 00:09:19;;;;;;;65.37;36.75;;;;;;;1.85;65.32;102694.98;1611067;87;21624;-77
2022/03/24 00:11:47;;;;;;;65.75;38.17;;;;;;;1.84;65.29;102688.88;1610874;87;21116;-77
2022/03/24 00:14:16;;;;;;;60.35;36.17;;;;;;;1.86;65.25;102695.48;1611069;87;21798;-77
2022/03/24 00:16:43;;;;;;;59.10;35.23;;;;;;;1.87;65.22;102697.33;1610969;87;21116;-77
2022/03/24 00:19:10;;;;;;;64.58;35.68;;;;;;;1.87;65.18;102697.33;1608728;87;21125;-77
2022/03/24 00:21:36;;;;;;;57.53;35.25;;;;;;;1.87;65.17;102692.13;1595817;88;21130;-77
2022/03/24 00:24:03;;;;;;;63.83;35.92;;;;;;;1.88;65.09;102690.08;1609509;87;21105;-77
2022/03/24 00:26:30;;;;;;;57.43;34.45;;;;;;;1.87;65.06;102696.93;1611054;87;21788;-77
2022/03/24 00:28:57;;;;;;;60.08;35.58;;;;;;;1.87;64.99;102693.43;1611171;87;21077;-77
2022/03/24 00:31:24;;;;;;;62.62;35.58;;;;;;;1.87;64.96;102683.95;1610510;87;21117;-77
2022/03/24 00:33:55;;;;;;;59.00;36.65;;;;;;;1.88;64.91;102690.08;1599887;87;21668;-77
2022/03/24 00:36:20;;;;;;;63.48;34.20;;;;;;;1.88;64.87;102684.88;1605249;87;21104;-77
2022/03/24 00:38:46;;;;;;;55.60;33.90;;;;;;;1.88;64.81;102684.88;1640021;85;22539;-78
2022/03/24 00:41:13;;;;;;;61.20;32.95;;;;;;;1.88;64.76;102678.39;1620642;87;21155;-77
2022/03/24 00:43:40;;;;;;;56.77;34.13;;;;;;;1.87;64.70;102679.15;1620603;87;21665;-78
2022/03/24 00:46:07;;;;;;;53.20;32.60;;;;;;;1.87;64.65;102680.05;1616645;87;21104;-76
2022/03/24 00:48:34;;;;;;;54.27;33.15;;;;;;;1.86;64.59;102673.41;1619816;87;21070;-77
2022/03/24 00:51:01;;;;;;;61.53;34.90;;;;;;;1.84;64.53;102677.20;1619808;87;22686;-77
2022/03/24 00:53:29;;;;;;;57.65;32.88;;;;;;;1.84;64.49;102672.00;1620287;87;21127;-77
2022/03/24 00:55:56;;;;;;;52.62;31.85;;;;;;;1.76;64.44;102657.39;1621348;87;21121;-77
2022/03/24 00:58:24;;;;;;;54.40;32.75;;;;;;;1.81;64.42;102665.62;1636083;86;21122;-77
2022/03/24 01:00:53;;;;;;;50.45;31.35;;;;;;;1.80;64.37;102665.08;1636913;86;21134;-76
2022/03/24 01:03:20;;;;;;;57.17;33.05;;;;;;;1.78;64.36;102661.03;1636717;86;21797;-77
2022/03/24 01:05:47;;;;;;;57.38;32.28;;;;;;;1.77;64.31;102660.53;1639672;85;21077;-77
2022/03/24 01:08:16;;;;;;;56.30;30.43;;;;;;;1.78;64.34;102658.44;1617561;87;21131;-76
2022/03/24 01:10:43;;;;;;;55.55;31.87;;;;;;;1.79;64.30;102660.67;1618411;87;21585;-77
2022/03/24 01:13:09;;;;;;;56.10;33.23;;;;;;;1.79;64.27;102658.98;1588374;88;21105;-77
2022/03/24 01:15:36;;;;;;;54.08;31.42;;;;;;;1.78;64.22;102652.34;1591597;88;21788;-77
2022/03/24 01:18:02;;;;;;;53.75;30.25;;;;;;;1.78;64.16;102654.94;1618855;87;21131;-77
2022/03/24 01:20:30;;;;;;;46.88;29.52;;;;;;;1.75;64.14;102653.89;1602321;88;21123;-77
2022/03/24 01:22:57;;;;;;;50.73;29.02;;;;;;;1.75;64.07;102646.10;1596790;88;21032;-77
2022/03/24 01:25:27;;;;;;;51.18;30.05;;;;;;;1.73;64.02;102646.35;1610505;86;21137;-77
2022/03/24 01:27:52;;;;;;;51.77;28.67;;;;;;;1.72;64.02;102647.50;1647358;86;22048;-76
2022/03/24 01:30:20;;;;;;;44.48;27.60;;;;;;;1.69;63.96;102638.12;1625381;86;21674;-76
2022/03/24 01:32:46;;;;;;;53.33;29.10;;;;;;;1.67;64.01;102638.02;1607079;86;21104;-76
2022/03/24 01:35:13;;;;;;;44.18;29.20;;;;;;;1.66;64.02;102637.87;1620234;86;21092;-76
2022/03/24 01:37:40;;;;;;;49.27;28.45;;;;;;;1.63;64.02;102630.69;1602365;88;21554;-76
2022/03/24 01:40:09;;;;;;;45.17;27.02;;;;;;;1.62;64.04;102643.16;1602272;88;22803;-77
2022/03/24 01:42:36;;;;;;;44.48;27.75;;;;;;;1.62;64.06;102637.97;1613004;87;21107;-76
2022/03/24 01:45:04;;;;;;;46.35;27.45;;;;;;;1.63;64.04;102628.09;1608040;88;21104;-76
2022/03/24 01:47:32;;;;;;;43.48;26.75;;;;;;;1.64;64.05;102629.94;1602084;88;21634;-77
2022/03/24 01:49:59;;;;;;;46.80;27.55;;;;;;;1.64;64.03;102626.04;1602183;88;21088;-76
2022/03/24 01:52:26;;;;;;;47.25;27.87;;;;;;;1.65;64.01;102624.34;1602066;88;22573;-77
2022/03/24 01:54:55;;;;;;;39.70;26.02;;;;;;;1.66;64.01;102622.30;1607867;88;21647;-77
2022/03/24 01:57:22;;;;;;;45.65;26.20;;;;;;;1.66;63.97;102623.20;1603703;88;21067;-77
2022/03/24 01:59:49;;;;;;;42.78;25.30;;;;;;;1.67;63.94;102620.20;1621635;87;21618;-77
2022/03/24 02:02:16;;;;;;;42.03;25.62;;;;;;;1.65;63.92;102618.80;1610922;87;21129;-77
2022/03/24 02:04:43;;;;;;;45.90;25.90;;;;;;;1.66;63.94;102620.99;1610085;87;22250;-77
2022/03/24 02:07:14;;;;;;;43.80;27.00;;;;;;;1.67;63.94;102618.55;1580635;88;21611;-77
2022/03/24 02:09:38;;;;;;;45.45;26.42;;;;;;;1.67;63.89;102612.05;1597460;88;21879;-76
2022/03/24 02:12:06;;;;;;;39.75;23.60;;;;;;;1.69;63.87;102615.70;1626312;86;21104;-76
2022/03/24 02:14:33;;;;;;;43.85;24.70;;;;;;;1.69;63.83;102617.36;1610941;87;21104;-77
2022/03/24 02:17:00;;;;;;;39.50;23.98;;;;;;;1.71;63.82;102614.15;1613969;87;21761;-76
2022/03/24 02:19:26;;;;;;;40.30;23.92;;;;;;;1.74;63.77;102613.50;1588113;88;21077;-78
2022/03/24 02:21:58;;;;;;;40.03;23.95;;;;;;;1.76;63.73;102611.95;1594702;87;21178;-77
2022/03/24 02:24:26;;;;;;;38.75;23.92;;;;;;;1.70;63.72;102603.22;1605514;87;21132;-77
2022/03/24 02:26:52;;;;;;;36.95;23.40;;;;;;;1.78;63.66;102613.00;1610914;87;21200;-78
2022/03/24 02:29:24;;;;;;;40.03;23.10;;;;;;;1.79;63.59;102612.24;1610800;87;22402;-77
2022/03/24 02:31:50;;;;;;;38.42;23.60;;;;;;;1.78;63.52;102607.80;1583341;88;21528;-76
2022/03/24 02:34:40;;;;;;;38.02;23.85;;;;;;;1.79;63.52;102613.54;1603734;87;21092;-77
2022/03/24 02:37:19;;;;;;;40.08;23.12;;;;;;;1.78;63.48;102606.91;1606834;87;21749;-76
2022/03/24 02:39:53;;;;;;;41.37;23.87;;;;;;;1.76;63.49;102609.36;1610911;87;21729;-77
2022/03/24 02:42:22;;;;;;;42.80;22.70;;;;;;;1.74;63.46;102614.41;1619735;87;21842;-76
2022/03/24 02:44:51;;;;;;;36.98;22.58;;;;;;;1.73;63.44;102608.70;1620649;87;21111;-76
2022/03/24 02:47:18;;;;;;;37.13;22.35;;;;;;;1.72;63.46;102605.97;1620676;87;21148;-77
2022/03/24 02:49:46;;;;;;;36.58;22.27;;;;;;;1.71;63.45;102605.06;1620378;87;21127;-77
2022/03/24 02:52:13;;;;;;;37.85;23.55;;;;;;;1.70;63.41;102608.81;1615677;87;21111;-77
2022/03/24 02:54:40;;;;;;;33.98;22.65;;;;;;;1.67;63.41;102601.67;1620390;87;21787;-77
2022/03/24 02:57:07;;;;;;;37.80;22.35;;;;;;;1.66;63.44;102605.42;1624571;87;21068;-76
2022/03/24 02:59:34;;;;;;;37.55;22.55;;;;;;;1.64;63.40;102604.38;1636597;86;21115;-76
2022/03/24 03:02:07;;;;;;;39.55;22.87;;;;;;;1.61;63.45;102602.39;1636393;86;21147;-76
2022/03/24 03:04:38;;;;;;;36.98;22.22;;;;;;;1.62;63.48;102602.03;1617497;87;27731;-77
2022/03/24 03:07:05;;;;;;;35.05;21.70;;;;;;;1.61;63.45;102601.48;1596516;89;21813;-76
2022/03/24 03:09:33;;;;;;;38.63;21.93;;;;;;;1.61;63.45;102597.59;1593485;88;21057;-77
2022/03/24 03:12:00;;;;;;;38.92;23.90;;;;;;;1.52;63.41;102591.17;1591597;88;21108;-76
2022/03/24 03:14:27;;;;;;;37.90;22.10;;;;;;;1.56;63.46;102601.09;1591376;88;21209;-77
2022/03/24 03:16:55;;;;;;;36.30;21.35;;;;;;;1.54;63.45;102602.23;1589668;88;21577;-76
2022/03/24 03:19:22;;;;;;;40.20;22.70;;;;;;;1.54;63.51;102600.04;1600690;88;21852;-76
2022/03/24 03:21:49;;;;;;;40.35;21.48;;;;;;;1.52;63.48;102598.59;1603956;88;21081;-76
2022/03/24 03:24:16;;;;;;;35.83;22.45;;;;;;;1.52;63.51;102608.03;1606985;87;21080;-76
2022/03/24 03:26:43;;;;;;;35.48;20.55;;;;;;;1.51;63.52;102603.64;1600047;88;21105;-76
2022/03/24 03:29:10;;;;;;;36.80;22.48;;;;;;;1.49;63.52;102598.70;1607347;88;21781;-75
2022/03/24 03:31:36;;;;;;;35.35;21.52;;;;;;;1.52;63.53;102597.66;1603248;88;21786;-76
2022/03/24 03:34:08;;;;;;;37.42;21.75;;;;;;;1.51;63.52;102594.16;1600227;88;21781;-75
2022/03/24 03:36:35;;;;;;;32.38;21.87;;;;;;;1.50;63.49;102596.25;1600373;88;21621;-76
2022/03/24 03:39:01;;;;;;;35.48;20.75;;;;;;;1.50;63.50;102605.69;1600541;88;21104;-75
2022/03/24 03:41:28;;;;;;;40.95;21.30;;;;;;;1.50;63.52;102604.39;1600386;88;21605;-75
2022/03/24 03:43:55;;;;;;;35.03;20.70;;;;;;;1.49;63.55;102602.20;1600749;88;21768;-75
2022/03/24 03:46:23;;;;;;;37.70;22.80;;;;;;;1.50;63.52;102603.09;1610031;88;21599;-75
2022/03/24 03:48:49;;;;;;;36.33;22.17;;;;;;;1.48;63.49;102602.05;1600099;88;21109;-76
2022/03/24 03:51:16;;;;;;;40.67;22.82;;;;;;;1.46;63.50;102607.09;1604241;88;21140;-76
2022/03/24 03:53:43;;;;;;;39.60;22.42;;;;;;;1.43;63.50;102609.42;1604969;88;21092;-76
2022/03/24 03:56:09;;;;;;;42.20;22.62;;;;;;;1.41;63.54;102612.63;1600006;88;21736;-77
2022/03/24 03:58:36;;;;;;;37.67;20.72;;;;;;;1.40;63.54;102614.33;1587218;89;21192;-76
2022/03/24 04:01:06;;;;;;;38.67;21.35;;;;;;;1.37;63.56;102607.58;1585586;89;21687;-77
2022/03/24 04:03:35;;;;;;;33.15;20.30;;;;;;;1.36;63.57;102610.92;1582684;89;21134;-76
2022/03/24 04:06:07;;;;;;;31.30;19.90;;;;;;;1.36;63.65;102604.05;1585701;88;21120;-76
2022/03/24 04:08:35;;;;;;;30.37;19.95;;;;;;;1.38;63.66;102608.09;1580500;88;21784;-76
2022/03/24 04:11:02;;;;;;;33.00;19.62;;;;;;;1.38;63.64;102601.99;1583866;89;21173;-76
2022/03/24 04:13:28;;;;;;;33.35;20.12;;;;;;;1.40;63.65;102600.05;1574493;89;21136;-76
2022/03/24 04:15:55;;;;;;;35.40;18.92;;;;;;;1.42;63.67;102595.91;1564496;89;21100;-76
2022/03/24 04:18:24;;;;;;;29.70;19.10;;;;;;;1.45;63.67;102590.11;1569143;89;21147;-77
2022/03/24 04:20:51;;;;;;;35.40;20.80;;;;;;;1.47;63.65;102594.66;1570786;90;21797;-76
2022/03/24 04:23:18;;;;;;;34.35;19.62;;;;;;;1.51;63.67;102589.36;1579817;89;21140;-76
2022/03/24 04:25:45;;;;;;;33.13;20.55;;;;;;;1.59;63.67;102590.05;1624752;86;21079;-76
2022/03/24 04:28:12;;;;;;;32.98;19.82;;;;;;;1.65;63.65;102591.54;1577929;89;21174;-76
2022/03/24 04:30:38;;;;;;;35.50;20.40;;;;;;;1.71;63.60;102588.59;1571268;89;21340;-76
2022/03/24 04:33:06;;;;;;;30.97;19.80;;;;;;;1.80;63.58;102589.78;1573828;89;21836;-75
2022/03/24 04:35:32;;;;;;;35.45;19.12;;;;;;;1.88;63.51;102591.40;1562494;89;21149;-75
2022/03/24 04:37:59;;;;;;;32.05;19.12;;;;;;;1.94;63.40;102584.14;1584387;89;21081;-76
2022/03/24 04:40:26;;;;;;;33.90;20.95;;;;;;;2.01;63.33;102581.69;1582852;89;21161;-78
2022/03/24 04:42:54;;;;;;;32.38;19.25;;;;;;;2.08;63.26;102583.70;1587567;89;21071;-76
2022/03/24 04:45:21;;;;;;;30.77;20.12;;;;;;;2.16;63.16;102587.33;1582938;89;21888;-76
2022/03/24 04:47:47;;;;;;;32.10;20.05;;;;;;;2.25;63.13;102581.29;1574858;89;21142;-76
2022/03/24 04:50:14;;;;;;;37.65;20.55;;;;;;;2.45;63.15;102586.91;1573694;89;22243;-76
2022/03/24 04:52:41;;;;;;;30.92;20.48;;;;;;;2.73;63.08;102590.61;1577693;89;21144;-75
2022/03/24 04:55:09;;;;;;;32.15;19.67;;;;;;;3.05;62.89;102579.45;1577009;89;21856;-74
2022/03/24 04:57:35;;;;;;;31.85;20.50;;;;;;;3.27;62.47;102580.88;1576589;88;21789;-73
2022/03/24 05:00:05;;;;;;;46.85;25.17;;;;;;;3.39;62.03;102575.37;1598670;88;21111;-73
2022/03/24 05:02:32;;;;;;;39.38;23.52;;;;;;;3.46;61.66;102579.00;1597890;88;21096;-73
2022/03/24 05:04:58;;;;;;;89.50;39.08;;;;;;;3.49;61.42;102575.37;1598812;88;21573;-73
2022/03/24 05:07:26;;;;;;;86.17;40.17;;;;;;;3.53;61.27;102575.23;1598986;88;21081;-73
2022/03/24 05:09:53;;;;;;;75.80;43.60;;;;;;;3.57;61.14;102572.09;1599466;88;21873;-73
2022/03/24 05:12:20;;;;;;;40.30;23.45;;;;;;;3.61;61.04;102568.95;1599107;87;21108;-73
2022/03/24 05:14:46;;;;;;;31.45;19.98;;;;;;;3.69;60.91;102563.97;1599036;88;21555;-73
2022/03/24 05:17:13;;;;;;;31.93;19.55;;;;;;;3.77;60.75;102563.28;1598896;88;21096;-75
2022/03/24 05:19:39;;;;;;;30.57;19.17;;;;;;;3.86;60.67;102559.23;1608669;88;21063;-77
2022/03/24 05:22:06;;;;;;;32.48;18.98;;;;;;;3.93;60.50;102561.55;1631538;87;21770;-76
2022/03/24 05:24:33;;;;;;;35.30;21.62;;;;;;;3.98;60.33;102561.55;1617537;86;21625;-75
2022/03/24 05:27:00;;;;;;;37.17;20.05;;;;;;;4.06;60.25;102560.85;1645043;85;21057;-76
2022/03/24 05:29:26;;;;;;;35.52;21.35;;;;;;;4.12;60.03;102560.03;1615723;87;21124;-77
2022/03/24 05:31:53;;;;;;;32.05;20.25;;;;;;;4.16;59.90;102562.09;1621008;87;21114;-78
2022/03/24 05:34:19;;;;;;;30.70;20.00;;;;;;;4.21;59.72;102564.68;1603413;87;22556;-75
2022/03/24 05:36:46;;;;;;;32.67;19.20;;;;;;;4.24;59.63;102559.72;1604923;87;21141;-74
2022/03/24 05:39:13;;;;;;;32.98;20.20;;;;;;;4.27;59.54;102559.95;1610650;87;21108;-74
2022/03/24 05:41:40;;;;;;;31.17;18.87;;;;;;;4.29;59.42;102567.89;1609197;87;21182;-75
2022/03/24 05:44:07;;;;;;;38.23;20.62;;;;;;;4.32;59.26;102562.94;1601446;87;21961;-76
2022/03/24 05:46:37;;;;;;;33.40;19.98;;;;;;;4.34;59.21;102557.45;1601659;87;21791;-75
2022/03/24 05:49:06;;;;;;;34.30;21.05;;;;;;;4.37;59.19;102560.27;1591089;88;21111;-77
2022/03/24 05:51:33;;;;;;;34.73;20.60;;;;;;;4.41;59.04;102554.91;1611033;87;21111;-76
2022/03/24 05:54:00;;;;;;;37.25;21.17;;;;;;;4.43;58.87;102555.56;1596318;87;21029;-76
2022/03/24 05:56:27;;;;;;;31.07;20.35;;;;;;;4.47;58.82;102555.42;1609274;87;21615;-75
2022/03/24 05:58:55;;;;;;;35.03;18.65;;;;;;;4.51;58.72;102556.16;1605030;87;21690;-75
2022/03/24 06:01:24;;;;;;;36.25;19.48;;;;;;;4.56;58.63;102555.20;1593598;87;21116;-75
2022/03/24 06:03:51;;;;;;;35.90;19.57;;;;;;;4.61;58.55;102556.48;1605294;87;21601;-75
2022/03/24 06:06:22;;;;;;;32.35;19.85;;;;;;;4.67;58.46;102556.58;1627363;87;21114;-75
2022/03/24 06:08:52;;;;;;;42.27;20.15;;;;;;;4.74;58.32;102556.64;1613015;87;21080;-75
2022/03/24 06:11:17;;;;;;;36.55;19.87;;;;;;;4.79;58.21;102552.70;1602687;87;22411;-75
2022/03/24 06:13:45;;;;;;;30.57;19.80;;;;;;;4.76;58.11;102535.90;1604760;87;21031;-75
2022/03/24 06:16:15;;;;;;;36.85;20.77;;;;;;;4.94;57.99;102558.59;1595882;87;21115;-75
2022/03/24 06:18:42;;;;;;;32.45;19.73;;;;;;;5.00;57.82;102550.83;1592241;87;21060;-75
2022/03/24 06:21:08;;;;;;;32.70;19.70;;;;;;;5.09;57.70;102555.84;1598577;87;21096;-76
2022/03/24 06:23:35;;;;;;;31.95;18.85;;;;;;;5.18;57.56;102550.02;1604399;87;21749;-75
2022/03/24 06:26:02;;;;;;;29.63;19.25;;;;;;;5.26;57.43;102554.52;1599594;87;21769;-75
2022/03/24 06:28:29;;;;;;;33.90;18.07;;;;;;;5.35;57.37;102560.44;1606982;87;21119;-75
2022/03/24 06:30:56;;;;;;;33.42;19.23;;;;;;;5.44;57.32;102549.75;1595556;87;21122;-75
2022/03/24 06:33:23;;;;;;;33.28;20.82;;;;;;;5.55;57.09;102561.90;1607103;87;21120;-75
2022/03/24 06:35:50;;;;;;;32.08;17.60;;;;;;;5.64;56.90;102561.69;1599389;87;21850;-75
2022/03/24 06:38:17;;;;;;;29.87;17.00;;;;;;;5.73;56.78;102555.84;1600051;87;21141;-76
2022/03/24 06:40:43;;;;;;;36.90;19.37;;;;;;;5.84;56.46;102564.47;1603679;87;21082;-75
2022/03/24 06:43:10;;;;;;;28.52;17.95;;;;;;;5.93;56.33;102558.61;1615933;87;21188;-75
2022/03/24 06:45:37;;;;;;;31.90;18.40;;;;;;;6.04;56.16;102562.02;1600584;87;21138;-76
2022/03/24 06:48:07;;;;;;;29.67;18.87;;;;;;;6.14;56.00;102563.20;1617159;87;21814;-76
2022/03/24 06:50:35;;;;;;;29.98;16.70;;;;;;;6.25;55.86;102557.45;1602511;87;21050;-76
2022/03/24 06:53:04;;;;;;;28.75;16.23;;;;;;;6.37;55.61;102557.41;1599378;87;21102;-76
2022/03/24 06:55:31;;;;;;;30.82;17.55;;;;;;;6.48;55.36;102566.02;1617458;87;21346;-75
2022/03/24 06:57:58;;;;;;;32.23;17.07;;;;;;;6.58;55.08;102558.91;1617379;87;21589;-76
2022/03/24 07:00:25;;;;;;;27.55;16.65;;;;;;;6.70;54.92;102565.42;1606409;87;21923;-76
2022/03/24 07:02:52;;;;;;;27.85;17.15;;;;;;;6.80;54.40;102571.78;1605528;87;21100;-76
2022/03/24 07:05:19;;;;;;;26.37;16.77;;;;;;;6.89;54.45;102558.81;1632880;87;21078;-76
2022/03/24 07:07:46;;;;;;;27.37;16.15;;;;;;;7.01;54.21;102564.91;1618254;87;21164;-76
2022/03/24 07:10:13;;;;;;;26.27;16.70;;;;;;;7.11;53.85;102559.48;1586355;87;21192;-76
2022/03/24 07:12:41;;;;;;;26.93;18.40;;;;;;;7.20;53.72;102565.34;1596101;87;21802;-76
2022/03/24 07:15:10;;;;;;;36.90;17.77;;;;;;;7.29;53.54;102560.25;1596225;87;21175;-76
2022/03/24 07:17:37;;;;;;;26.50;17.02;;;;;;;7.37;53.51;102562.55;1596436;87;21068;-76
2022/03/24 07:20:05;;;;;;;29.50;17.23;;;;;;;7.48;53.38;102561.97;1615464;87;21635;-76
2022/03/24 07:22:36;;;;;;;31.30;17.05;;;;;;;7.57;53.25;102556.03;1597361;87;21103;-76
2022/03/24 07:25:05;;;;;;;35.65;17.87;;;;;;;7.66;53.05;102555.74;1601712;87;22546;-76
2022/03/24 07:27:32;;;;;;;29.27;18.00;;;;;;;7.74;52.96;102558.86;1607036;87;21077;-76
2022/03/24 07:29:59;;;;;;;24.47;16.05;;;;;;;7.84;52.71;102557.33;1600025;87;21122;-76
2022/03/24 07:32:25;;;;;;;28.90;18.20;;;;;;;7.92;52.23;102562.69;1611782;87;21080;-77
2022/03/24 07:34:54;;;;;;;27.30;16.73;;;;;;;8.00;52.37;102563.59;1593276;88;36664;-77
2022/03/24 07:37:21;;;;;;;28.15;17.90;;;;;;;8.08;52.18;102557.11;1612182;87;22085;-76
2022/03/24 07:39:48;;;;;;;31.00;16.95;;;;;;;8.15;52.07;102560.22;1610477;87;21140;-76
2022/03/24 07:42:15;;;;;;;30.37;18.62;;;;;;;8.24;52.08;102568.16;1610418;87;21074;-74
2022/03/24 07:44:42;;;;;;;29.12;18.57;;;;;;;8.32;51.86;102569.58;1610345;87;21139;-75
2022/03/24 07:47:08;;;;;;;30.55;17.37;;;;;;;8.43;51.53;102571.58;1620875;87;21710;-75
2022/03/24 07:49:35;;;;;;;28.35;18.32;;;;;;;8.52;51.52;102569.53;1610580;87;21759;-75
2022/03/24 07:52:07;;;;;;;28.52;16.73;;;;;;;8.61;51.28;102569.22;1589087;88;21654;-74
2022/03/24 07:54:57;;;;;;;33.00;17.57;;;;;;;8.67;50.97;102569.58;1586489;88;21153;-75
2022/03/24 07:57:26;;;;;;;27.22;15.43;;;;;;;8.75;50.95;102577.13;1614245;87;21120;-75
2022/03/24 07:59:53;;;;;;;25.90;17.73;;;;;;;8.82;50.72;102578.44;1610509;87;21140;-74
2022/03/24 08:02:19;;;;;;;27.70;16.30;;;;;;;8.88;50.68;102566.09;1610431;87;22018;-75
2022/03/24 08:04:46;;;;;;;28.07;16.35;;;;;;;8.97;50.37;102578.43;1614506;86;21437;-75
2022/03/24 08:07:13;;;;;;;29.32;16.12;;;;;;;9.05;50.50;102573.26;1612351;87;21073;-74
2022/03/24 08:09:40;;;;;;;25.85;17.15;;;;;;;9.06;50.41;102567.17;1612511;87;21098;-74
2022/03/24 08:12:09;;;;;;;22.98;15.53;;;;;;;9.24;50.37;102573.95;1603274;87;21534;-74
2022/03/24 08:14:35;;;;;;;26.45;16.12;;;;;;;9.33;49.97;102569.66;1591747;87;22585;-75
2022/03/24 08:17:02;;;;;;;25.45;15.88;;;;;;;9.41;49.89;102575.36;1571996;88;21127;-75
2022/03/24 08:19:29;;;;;;;26.07;16.12;;;;;;;9.48;49.86;102574.91;1570544;88;21562;-74
2022/03/24 08:21:55;;;;;;;25.95;15.93;;;;;;;9.56;49.52;102574.05;1595561;87;21166;-74
2022/03/24 08:24:22;;;;;;;21.35;14.87;;;;;;;9.62;49.53;102575.29;1584156;87;21454;-75
2022/03/24 08:26:49;;;;;;;23.95;15.08;;;;;;;9.71;49.40;102577.14;1603626;87;22431;-74
2022/03/24 08:29:16;;;;;;;24.87;14.98;;;;;;;9.78;49.30;102582.36;1609465;87;21425;-75
2022/03/24 08:31:42;;;;;;;23.22;14.07;;;;;;;9.86;48.86;102586.74;1611710;87;21374;-74
2022/03/24 08:34:09;;;;;;;23.75;14.23;;;;;;;9.92;48.99;102569.98;1609906;87;21108;-76
2022/03/24 08:36:35;;;;;;;21.95;14.73;;;;;;;10.03;48.86;102580.70;1584438;88;21787;-74
2022/03/24 08:39:02;;;;;;;23.77;13.48;;;;;;;10.10;48.66;102573.66;1611864;87;21906;-75
2022/03/24 08:41:29;;;;;;;20.80;13.88;;;;;;;10.18;48.39;102575.41;1611439;86;21137;-75
2022/03/24 08:43:56;;;;;;;20.30;13.38;;;;;;;10.26;48.38;102579.77;1603296;86;21722;-75
2022/03/24 08:46:25;;;;;;;22.55;13.60;;;;;;;10.33;48.30;102577.12;1590801;88;21124;-75
2022/03/24 08:48:56;;;;;;;23.67;14.13;;;;;;;10.41;48.13;102578.44;1588620;88;21688;-76
2022/03/24 08:51:23;;;;;;;27.22;15.03;;;;;;;10.50;48.08;102578.94;1579105;87;21898;-76
2022/03/24 08:53:50;;;;;;;21.57;14.78;;;;;;;10.58;47.92;102578.94;1616713;87;21167;-76
2022/03/24 08:56:16;;;;;;;23.12;15.08;;;;;;;10.67;47.96;102579.44;1575278;88;21136;-75
2022/03/24 08:58:43;;;;;;;19.48;12.53;;;;;;;10.76;47.68;102582.09;1583808;87;21098;-76
2022/03/24 09:01:10;;;;;;;24.27;12.98;;;;;;;10.81;47.60;102583.22;1605561;87;21111;-75
2022/03/24 09:03:37;;;;;;;26.50;13.95;;;;;;;10.91;47.70;102587.27;1604520;87;21853;-76
2022/03/24 09:06:04;;;;;;;21.35;13.28;;;;;;;11.02;47.64;102586.11;1625547;86;21077;-76
2022/03/24 09:08:31;;;;;;;22.93;12.90;;;;;;;11.15;47.39;102588.56;1626889;86;21058;-76
2022/03/24 09:10:58;;;;;;;21.93;12.23;;;;;;;11.24;47.13;102590.36;1620223;86;21709;-76
2022/03/24 09:13:27;;;;;;;19.37;13.65;;;;;;;11.31;47.05;102583.65;1592945;88;21131;-76
2022/03/24 09:15:55;;;;;;;24.75;13.70;;;;;;;11.38;46.79;102585.78;1618612;87;21793;-76
2022/03/24 09:18:22;;;;;;;18.95;12.25;;;;;;;11.44;46.74;102592.67;1619399;87;21130;-76
2022/03/24 09:20:49;;;;;;;20.90;11.48;;;;;;;11.50;46.59;102586.80;1617132;86;21097;-74
2022/03/24 09:23:16;;;;;;;18.80;13.45;;;;;;;11.55;46.30;102590.59;1629253;86;21131;-75
2022/03/24 09:25:44;;;;;;;20.37;14.28;;;;;;;11.58;45.91;102601.31;1592570;88;21147;-74
2022/03/24 09:28:11;;;;;;;20.80;13.28;;;;;;;11.57;45.78;102584.98;1581526;88;21798;-74
2022/03/24 09:30:37;;;;;;;19.70;13.18;;;;;;;11.59;45.61;102586.37;1628803;86;22302;-75
2022/03/24 09:33:04;;;;;;;20.90;13.15;;;;;;;11.62;45.68;102585.23;1616544;86;21062;-77
2022/03/24 09:35:33;;;;;;;22.32;12.43;;;;;;;11.64;45.13;102585.78;1599169;88;21094;-74
2022/03/24 09:38:02;;;;;;;19.35;12.95;;;;;;;11.66;44.87;102581.91;1597532;88;21111;-74
2022/03/24 09:40:29;;;;;;;16.93;11.90;;;;;;;11.65;45.06;102579.66;1624388;86;22820;-76
2022/03/24 09:42:57;;;;;;;26.68;12.68;;;;;;;11.71;45.08;102582.12;1627515;86;21096;-75
2022/03/24 09:45:24;;;;;;;21.33;11.60;;;;;;;11.74;44.86;102587.56;1623102;86;21121;-75
2022/03/24 09:47:51;;;;;;;19.35;13.15;;;;;;;11.79;44.69;102580.79;1608161;87;21117;-74
2022/03/24 09:50:20;;;;;;;19.73;12.55;;;;;;;11.81;44.82;102581.34;1626460;87;21156;-75
2022/03/24 09:52:48;;;;;;;17.82;12.13;;;;;;;11.85;44.75;102576.70;1591295;88;21834;-76
2022/03/24 09:55:16;;;;;;;20.60;12.20;;;;;;;11.90;44.48;102584.89;1621302;86;21082;-76
2022/03/24 09:57:44;;;;;;;18.45;11.45;;;;;;;11.96;44.51;102577.27;1592349;88;21601;-76
2022/03/24 10:00:13;;;;;;;24.27;12.05;;;;;;;12.03;43.95;102587.69;1622471;86;21097;-76
2022/03/24 10:02:40;;;;;;;20.68;11.70;;;;;;;12.06;43.88;102582.56;1612072;86;21133;-78
2022/03/24 10:05:08;;;;;;;22.35;11.93;;;;;;;12.11;43.92;102578.84;1616740;86;22586;-76
2022/03/24 10:07:46;;;;;;;19.98;11.43;;;;;;;12.20;43.49;102584.14;1619285;86;21101;-75
2022/03/24 10:10:27;;;;;;;15.08;9.73;;;;;;;12.27;43.72;102580.04;1608630;87;21049;-76
2022/03/24 10:12:54;;;;;;;28.25;10.18;;;;;;;12.32;43.29;102579.84;1603094;87;21187;-76
2022/03/24 10:15:20;;;;;;;22.35;11.53;;;;;;;12.39;42.98;102591.20;1607790;87;21354;-76
2022/03/24 10:17:52;;;;;;;17.92;10.50;;;;;;;12.45;43.15;102580.02;1614600;87;21778;-76
2022/03/24 10:20:18;;;;;;;19.48;10.72;;;;;;;12.52;43.22;102571.94;1587215;87;21112;-76
2022/03/24 10:22:58;;;;;;;13.98;9.33;;;;;;;12.60;42.91;102570.58;1604608;87;21052;-76
2022/03/24 10:25:30;;;;;;;24.95;10.85;;;;;;;12.66;42.77;102572.17;1604234;87;21219;-75
2022/03/24 10:28:14;;;;;;;16.20;9.08;;;;;;;12.71;42.38;102569.75;1608753;86;21182;-76
2022/03/24 10:30:58;;;;;;;15.93;8.73;;;;;;;12.70;42.05;102568.82;1603985;87;22806;-76
2022/03/24 10:33:40;;;;;;;16.17;9.53;;;;;;;12.73;41.81;102573.37;1601144;87;21382;-75
2022/03/24 10:36:17;;;;;;;11.50;7.35;;;;;;;12.75;41.80;102569.95;1603271;87;21176;-75
2022/03/24 10:38:46;;;;;;;15.20;9.40;;;;;;;12.80;41.62;102571.06;1616532;86;21071;-75
2022/03/24 10:41:20;;;;;;;17.95;9.50;;;;;;;12.87;41.80;102562.08;1638716;85;21672;-75
2022/03/24 10:43:53;;;;;;;16.30;9.65;;;;;;;12.89;41.68;102565.70;1625896;86;21779;-76
2022/03/24 10:46:21;;;;;;;16.27;9.70;;;;;;;12.92;41.48;102568.05;1610419;86;21110;-76
2022/03/24 10:48:48;;;;;;;17.23;10.38;;;;;;;12.96;41.42;102567.78;1606070;87;22249;-76
2022/03/24 10:51:24;;;;;;;13.22;8.60;;;;;;;12.97;41.33;102573.53;1599086;87;21176;-76
2022/03/24 10:53:51;;;;;;;11.95;7.58;;;;;;;12.96;41.37;102559.42;1581841;88;21352;-76
2022/03/24 10:56:33;;;;;;;12.90;7.45;;;;;;;13.00;40.85;102575.00;1585676;88;22684;-76
2022/03/24 10:59:04;;;;;;;21.73;7.58;;;;;;;13.03;40.25;102566.79;1603703;87;21593;-75
2022/03/24 11:01:31;;;;;;;12.10;6.20;;;;;;;13.10;40.34;102557.80;1598922;87;21183;-75
2022/03/24 11:03:58;;;;;;;16.40;7.25;;;;;;;13.15;39.55;102569.06;1589183;87;21132;-76
2022/03/24 11:06:24;;;;;;;15.25;6.58;;;;;;;13.18;39.65;102558.63;1597022;88;21065;-75
2022/03/24 11:08:58;;;;;;;13.68;7.20;;;;;;;13.25;39.65;102566.81;1602714;87;21765;-76
2022/03/24 11:11:25;;;;;;;16.32;7.50;;;;;;;13.26;39.29;102556.31;1607427;87;27770;-76
2022/03/24 11:13:57;;;;;;;11.22;6.97;;;;;;;13.26;39.10;102572.61;1579778;89;21108;-76
2022/03/24 11:16:25;;;;;;;12.35;7.15;;;;;;;13.23;38.50;102583.94;1604510;87;21108;-76
2022/03/24 11:18:53;;;;;;;14.15;7.75;;;;;;;13.19;38.46;102557.80;1606654;87;21038;-77
2022/03/24 11:21:34;;;;;;;17.70;7.17;;;;;;;13.22;38.79;102572.89;1609356;87;22631;-76